sensor_id;sensor_type;location;lat;lon;timestamp;pressure;altitude;pressure_sealevel;temperature;humidity
15670;BME280;18524;45.190;5.732;2024-01-10T00:03:25;99756.91;;;2.81;100.00
15670;BME280;18524;45.190;5.732;2024-01-10T00:08:15;99761.06;;;2.85;100.00
15670;BME280;18524;45.190;5.732;2024-01-10T00:13:06;99752.25;;;2.67;100.00
15670;BME280;18524;45.190;5.732;2024-01-10T00:17:56;99746.13;;;2.70;100.00
15670;BME280;18524;45.190;5.732;2024-01-10T00:22:46;99764.41;;;2.65;100.00
15670;BME280;18524;45.190;5.732;2024-01-10T00:27:37;99755.50;;;2.72;100.00
15670;BME280;18524;45.190;5.732;2024-01-10T00:32:27;99760.56;;;2.75;100.00
15670;BME280;18524;45.190;5.732;2024-01-10T00:37:17;99762.06;;;2.81;100.00
15670;BME280;18524;45.190;5.732;2024-01-10T00:42:08;99758.53;;;2.83;100.00
15670;BME280;18524;45.190;5.732;2024-01-10T00:46:58;99746.34;;;2.86;100.00
15670;BME280;18524;45.190;5.732;2024-01-10T00:51:48;99758.41;;;2.87;100.00
15670;BME280;18524;45.190;5.732;2024-01-10T00:56:39;99756.34;;;2.95;100.00
15670;BME280;18524;45.190;5.732;2024-01-10T01:01:29;99754.91;;;2.88;100.00
15670;BME280;18524;45.190;5.732;2024-01-10T01:06:20;99751.91;;;2.76;100.00
15670;BME280;18524;45.190;5.732;2024-01-10T01:11:10;99743.34;;;2.74;100.00
15670;BME280;18524;45.190;5.732;2024-01-10T01:16:00;99747.31;;;2.61;100.00
15670;BME280;18524;45.190;5.732;2024-01-10T01:20:51;99753.03;;;2.69;100.00
15670;BME280;18524;45.190;5.732;2024-01-10T01:25:41;99738.16;;;2.74;100.00
15670;BME280;18524;45.190;5.732;2024-01-10T01:30:32;99748.66;;;2.71;100.00
15670;BME280;18524;45.190;5.732;2024-01-10T01:35:22;99744.88;;;2.57;100.00
15670;BME280;18524;45.190;5.732;2024-01-10T01:40:13;99751.66;;;2.61;100.00
15670;BME280;18524;45.190;5.732;2024-01-10T01:45:04;99754.06;;;2.65;100.00
15670;BME280;18524;45.190;5.732;2024-01-10T01:49:54;99749.91;;;2.61;100.00
15670;BME280;18524;45.190;5.732;2024-01-10T01:54:45;99759.44;;;2.59;100.00
15670;BME280;18524;45.190;5.732;2024-01-10T01:59:36;99756.28;;;2.74;100.00
15670;BME280;18524;45.190;5.732;2024-01-10T02:04:28;99754.00;;;2.67;100.00
15670;BME280;18524;45.190;5.732;2024-01-10T02:09:19;99754.72;;;2.70;100.00
15670;BME280;18524;45.190;5.732;2024-01-10T02:14:10;99760.16;;;2.64;100.00
15670;BME280;18524;45.190;5.732;2024-01-10T02:19:00;99765.16;;;2.69;100.00
15670;BME280;18524;45.190;5.732;2024-01-10T02:23:51;99750.34;;;2.72;100.00
15670;BME280;18524;45.190;5.732;2024-01-10T02:28:41;99754.25;;;2.61;100.00
15670;BME280;18524;45.190;5.732;2024-01-10T02:33:32;99750.91;;;2.57;100.00
15670;BME280;18524;45.190;5.732;2024-01-10T02:38:22;99749.84;;;2.63;100.00
15670;BME280;18524;45.190;5.732;2024-01-10T02:43:13;99750.63;;;2.65;100.00
15670;BME280;18524;45.190;5.732;2024-01-10T02:48:04;99755.88;;;2.63;100.00
15670;BME280;18524;45.190;5.732;2024-01-10T02:52:54;99758.41;;;2.65;100.00
15670;BME280;18524;45.190;5.732;2024-01-10T02:57:45;99764.19;;;2.71;100.00
15670;BME280;18524;45.190;5.732;2024-01-10T03:02:35;99758.28;;;2.68;100.00
15670;BME280;18524;45.190;5.732;2024-01-10T03:07:25;99756.41;;;2.71;100.00
15670;BME280;18524;45.190;5.732;2024-01-10T03:12:16;99758.22;;;2.69;100.00
15670;BME280;18524;45.190;5.732;2024-01-10T03:17:06;99753.59;;;2.77;100.00
15670;BME280;18524;45.190;5.732;2024-01-10T03:21:56;99733.81;;;2.75;100.00
15670;BME280;18524;45.190;5.732;2024-01-10T03:26:47;99748.47;;;2.76;100.00
15670;BME280;18524;45.190;5.732;2024-01-10T03:31:38;99747.75;;;2.72;100.00
15670;BME280;18524;45.190;5.732;2024-01-10T03:36:28;99735.63;;;2.73;100.00
15670;BME280;18524;45.190;5.732;2024-01-10T03:41:20;99736.47;;;2.73;100.00
15670;BME280;18524;45.190;5.732;2024-01-10T03:46:11;99729.38;;;2.78;100.00
15670;BME280;18524;45.190;5.732;2024-01-10T03:51:02;99726.72;;;2.80;100.00
15670;BME280;18524;45.190;5.732;2024-01-10T03:55:52;99741.84;;;2.69;100.00
15670;BME280;18524;45.190;5.732;2024-01-10T04:00:42;99738.81;;;2.79;100.00
15670;BME280;18524;45.190;5.732;2024-01-10T04:05:33;99723.59;;;2.72;100.00
15670;BME280;18524;45.190;5.732;2024-01-10T04:10:23;99729.38;;;2.78;100.00
15670;BME280;18524;45.190;5.732;2024-01-10T04:15:14;99720.81;;;2.76;100.00
15670;BME280;18524;45.190;5.732;2024-01-10T04:20:04;99719.91;;;2.77;100.00
15670;BME280;18524;45.190;5.732;2024-01-10T04:24:59;99718.34;;;2.73;100.00
15670;BME280;18524;45.190;5.732;2024-01-10T04:29:50;99724.88;;;2.62;100.00
15670;BME280;18524;45.190;5.732;2024-01-10T04:34:40;99716.78;;;2.69;100.00
15670;BME280;18524;45.190;5.732;2024-01-10T04:39:31;99710.22;;;2.61;100.00
15670;BME280;18524;45.190;5.732;2024-01-10T04:44:21;99710.72;;;2.70;100.00
15670;BME280;18524;45.190;5.732;2024-01-10T04:49:11;99712.28;;;2.74;100.00
15670;BME280;18524;45.190;5.732;2024-01-10T04:54:02;99723.47;;;2.75;100.00
15670;BME280;18524;45.190;5.732;2024-01-10T04:58:52;99716.00;;;2.67;100.00
15670;BME280;18524;45.190;5.732;2024-01-10T05:03:43;99723.59;;;2.72;100.00
15670;BME280;18524;45.190;5.732;2024-01-10T05:08:33;99724.25;;;2.77;100.00
15670;BME280;18524;45.190;5.732;2024-01-10T05:13:23;99723.28;;;2.79;100.00
15670;BME280;18524;45.190;5.732;2024-01-10T05:18:15;99728.59;;;2.76;100.00
15670;BME280;18524;45.190;5.732;2024-01-10T05:23:06;99723.94;;;2.85;100.00
15670;BME280;18524;45.190;5.732;2024-01-10T05:27:57;99726.59;;;2.83;100.00
15670;BME280;18524;45.190;5.732;2024-01-10T05:32:48;99716.47;;;2.77;100.00
15670;BME280;18524;45.190;5.732;2024-01-10T05:37:39;99727.03;;;2.72;100.00
15670;BME280;18524;45.190;5.732;2024-01-10T05:42:29;99725.75;;;2.82;100.00
15670;BME280;18524;45.190;5.732;2024-01-10T05:47:20;99735.94;;;2.87;100.00
15670;BME280;18524;45.190;5.732;2024-01-10T05:52:10;99738.41;;;2.90;100.00
15670;BME280;18524;45.190;5.732;2024-01-10T05:57:00;99733.34;;;2.87;100.00
15670;BME280;18524;45.190;5.732;2024-01-10T06:01:51;99730.16;;;2.80;100.00
15670;BME280;18524;45.190;5.732;2024-01-10T06:06:41;99737.56;;;2.90;100.00
15670;BME280;18524;45.190;5.732;2024-01-10T06:11:31;99730.56;;;2.92;100.00
15670;BME280;18524;45.190;5.732;2024-01-10T06:16:22;99735.34;;;2.80;100.00
15670;BME280;18524;45.190;5.732;2024-01-10T06:21:12;99736.47;;;2.73;100.00
15670;BME280;18524;45.190;5.732;2024-01-10T06:26:03;99741.00;;;2.68;100.00
15670;BME280;18524;45.190;5.732;2024-01-10T06:30:53;99742.31;;;2.78;100.00
15670;BME280;18524;45.190;5.732;2024-01-10T06:35:44;99748.53;;;2.74;100.00
15670;BME280;18524;45.190;5.732;2024-01-10T06:40:35;99746.59;;;2.79;100.00
15670;BME280;18524;45.190;5.732;2024-01-10T06:45:26;99748.22;;;2.82;100.00
15670;BME280;18524;45.190;5.732;2024-01-10T06:50:17;99741.16;;;2.86;100.00
15670;BME280;18524;45.190;5.732;2024-01-10T06:55:09;99750.38;;;2.93;100.00
15670;BME280;18524;45.190;5.732;2024-01-10T07:00:00;99753.66;;;2.98;100.00
15670;BME280;18524;45.190;5.732;2024-01-10T07:04:51;99761.31;;;3.01;100.00
15670;BME280;18524;45.190;5.732;2024-01-10T07:09:42;99766.50;;;3.01;100.00
15670;BME280;18524;45.190;5.732;2024-01-10T07:14:32;99773.75;;;2.91;100.00
15670;BME280;18524;45.190;5.732;2024-01-10T07:19:22;99781.41;;;2.94;100.00
15670;BME280;18524;45.190;5.732;2024-01-10T07:24:14;99776.41;;;2.90;100.00
15670;BME280;18524;45.190;5.732;2024-01-10T07:29:04;99792.47;;;2.99;100.00
15670;BME280;18524;45.190;5.732;2024-01-10T07:33:58;99790.78;;;2.98;100.00
15670;BME280;18524;45.190;5.732;2024-01-10T07:38:48;99787.16;;;3.02;100.00
15670;BME280;18524;45.190;5.732;2024-01-10T07:43:39;99799.47;;;2.96;100.00
15670;BME280;18524;45.190;5.732;2024-01-10T07:48:29;99805.75;;;2.90;100.00
15670;BME280;18524;45.190;5.732;2024-01-10T07:53:21;99793.75;;;2.88;100.00
15670;BME280;18524;45.190;5.732;2024-01-10T07:58:11;99805.88;;;2.87;100.00
15670;BME280;18524;45.190;5.732;2024-01-10T08:03:02;99795.13;;;2.96;100.00
15670;BME280;18524;45.190;5.732;2024-01-10T08:07:52;99807.19;;;2.97;100.00
15670;BME280;18524;45.190;5.732;2024-01-10T08:12:43;99810.06;;;2.90;100.00
15670;BME280;18524;45.190;5.732;2024-01-10T08:17:34;99817.91;;;2.88;100.00
15670;BME280;18524;45.190;5.732;2024-01-10T08:22:26;99819.06;;;2.81;100.00
15670;BME280;18524;45.190;5.732;2024-01-10T08:27:16;99812.91;;;2.83;100.00
15670;BME280;18524;45.190;5.732;2024-01-10T08:32:07;99812.06;;;2.83;100.00
15670;BME280;18524;45.190;5.732;2024-01-10T08:36:57;99813.94;;;2.79;100.00
15670;BME280;18524;45.190;5.732;2024-01-10T08:41:48;99810.75;;;2.95;100.00
15670;BME280;18524;45.190;5.732;2024-01-10T08:46:38;99814.56;;;3.08;100.00
15670;BME280;18524;45.190;5.732;2024-01-10T08:51:28;99812.00;;;3.28;100.00
15670;BME280;18524;45.190;5.732;2024-01-10T08:56:19;99817.50;;;3.42;100.00
15670;BME280;18524;45.190;5.732;2024-01-10T09:01:10;99817.91;;;3.54;100.00
15670;BME280;18524;45.190;5.732;2024-01-10T09:06:01;99817.72;;;3.58;100.00
15670;BME280;18524;45.190;5.732;2024-01-10T09:10:51;99818.75;;;3.54;100.00
15670;BME280;18524;45.190;5.732;2024-01-10T09:15:41;99817.38;;;3.45;100.00
15670;BME280;18524;45.190;5.732;2024-01-10T09:20:32;99830.41;;;3.44;100.00
15670;BME280;18524;45.190;5.732;2024-01-10T09:25:22;99837.34;;;3.43;100.00
15670;BME280;18524;45.190;5.732;2024-01-10T09:30:13;99840.22;;;3.58;100.00
15670;BME280;18524;45.190;5.732;2024-01-10T09:35:04;99826.50;;;3.76;100.00
15670;BME280;18524;45.190;5.732;2024-01-10T09:39:54;99837.53;;;3.81;100.00
15670;BME280;18524;45.190;5.732;2024-01-10T09:44:46;99834.72;;;3.86;100.00
15670;BME280;18524;45.190;5.732;2024-01-10T09:49:37;99832.78;;;3.91;100.00
15670;BME280;18524;45.190;5.732;2024-01-10T09:54:29;99821.44;;;3.93;100.00
15670;BME280;18524;45.190;5.732;2024-01-10T09:59:20;99832.38;;;4.00;100.00
15670;BME280;18524;45.190;5.732;2024-01-10T10:04:12;99830.44;;;4.05;100.00
15670;BME280;18524;45.190;5.732;2024-01-10T10:09:02;99828.88;;;4.01;100.00
15670;BME280;18524;45.190;5.732;2024-01-10T10:13:53;99827.78;;;4.06;100.00
15670;BME280;18524;45.190;5.732;2024-01-10T10:18:43;99828.03;;;4.00;100.00
15670;BME280;18524;45.190;5.732;2024-01-10T10:23:39;99829.28;;;3.92;100.00
15670;BME280;18524;45.190;5.732;2024-01-10T10:28:29;99827.72;;;4.08;100.00
15670;BME280;18524;45.190;5.732;2024-01-10T10:33:21;99827.25;;;4.19;100.00
15670;BME280;18524;45.190;5.732;2024-01-10T10:38:12;99829.03;;;4.18;100.00
15670;BME280;18524;45.190;5.732;2024-01-10T10:43:03;99824.75;;;4.36;100.00
15670;BME280;18524;45.190;5.732;2024-01-10T10:47:59;99823.66;;;4.42;100.00
15670;BME280;18524;45.190;5.732;2024-01-10T10:52:50;99816.47;;;4.28;100.00
15670;BME280;18524;45.190;5.732;2024-01-10T10:57:43;99815.34;;;4.33;100.00
15670;BME280;18524;45.190;5.732;2024-01-10T11:02:34;99808.25;;;4.57;100.00
15670;BME280;18524;45.190;5.732;2024-01-10T11:07:26;99812.72;;;4.72;100.00
15670;BME280;18524;45.190;5.732;2024-01-10T11:28:37;99793.69;;;4.72;100.00
15670;BME280;18524;45.190;5.732;2024-01-10T11:33:31;99779.88;;;4.53;100.00
15670;BME280;18524;45.190;5.732;2024-01-10T11:38:23;99778.72;;;4.77;100.00
15670;BME280;18524;45.190;5.732;2024-01-10T11:43:13;99772.53;;;4.80;100.00
15670;BME280;18524;45.190;5.732;2024-01-10T11:48:07;99767.00;;;4.87;100.00
15670;BME280;18524;45.190;5.732;2024-01-10T11:52:57;99763.66;;;5.02;100.00
15670;BME280;18524;45.190;5.732;2024-01-10T11:58:07;99747.34;;;5.35;100.00
15670;BME280;18524;45.190;5.732;2024-01-10T12:02:58;99741.16;;;5.38;100.00
15670;BME280;18524;45.190;5.732;2024-01-10T12:07:50;99736.88;;;5.37;100.00
15670;BME280;18524;45.190;5.732;2024-01-10T12:12:41;99733.59;;;5.33;100.00
15670;BME280;18524;45.190;5.732;2024-01-10T12:17:31;99722.41;;;5.31;100.00
15670;BME280;18524;45.190;5.732;2024-01-10T12:22:21;99724.25;;;5.29;100.00
15670;BME280;18524;45.190;5.732;2024-01-10T12:27:12;99722.97;;;5.38;100.00
15670;BME280;18524;45.190;5.732;2024-01-10T12:32:03;99719.59;;;5.36;100.00
15670;BME280;18524;45.190;5.732;2024-01-10T12:36:56;99711.72;;;5.37;100.00
15670;BME280;18524;45.190;5.732;2024-01-10T12:41:46;99709.13;;;5.37;100.00
15670;BME280;18524;45.190;5.732;2024-01-10T12:46:49;99704.44;;;5.44;100.00
15670;BME280;18524;45.190;5.732;2024-01-10T12:51:40;99702.19;;;5.53;100.00
15670;BME280;18524;45.190;5.732;2024-01-10T12:56:31;99693.22;;;5.76;100.00
15670;BME280;18524;45.190;5.732;2024-01-10T13:01:22;99692.38;;;5.76;100.00
15670;BME280;18524;45.190;5.732;2024-01-10T13:06:12;99695.88;;;5.59;100.00
15670;BME280;18524;45.190;5.732;2024-01-10T13:11:03;99698.44;;;5.76;100.00
15670;BME280;18524;45.190;5.732;2024-01-10T13:15:58;99705.63;;;5.71;100.00
15670;BME280;18524;45.190;5.732;2024-01-10T13:20:50;99700.53;;;5.52;100.00
15670;BME280;18524;45.190;5.732;2024-01-10T13:25:40;99699.84;;;5.49;100.00
15670;BME280;18524;45.190;5.732;2024-01-10T13:30:31;99705.28;;;5.44;100.00
15670;BME280;18524;45.190;5.732;2024-01-10T13:35:21;99701.06;;;5.42;100.00
15670;BME280;18524;45.190;5.732;2024-01-10T13:40:12;99700.69;;;5.49;100.00
15670;BME280;18524;45.190;5.732;2024-01-10T13:45:07;99707.47;;;5.52;100.00
15670;BME280;18524;45.190;5.732;2024-01-10T13:49:58;99706.81;;;5.48;100.00
15670;BME280;18524;45.190;5.732;2024-01-10T13:54:48;99702.13;;;5.55;100.00
15670;BME280;18524;45.190;5.732;2024-01-10T13:59:38;99702.69;;;5.44;100.00
15670;BME280;18524;45.190;5.732;2024-01-10T14:04:29;99704.66;;;5.39;100.00
15670;BME280;18524;45.190;5.732;2024-01-10T14:09:19;99704.81;;;5.36;100.00
15670;BME280;18524;45.190;5.732;2024-01-10T14:14:10;99695.78;;;5.43;100.00
15670;BME280;18524;45.190;5.732;2024-01-10T14:19:00;99700.59;;;5.51;100.00
15670;BME280;18524;45.190;5.732;2024-01-10T14:23:51;99700.06;;;5.61;100.00
15670;BME280;18524;45.190;5.732;2024-01-10T14:28:41;99697.75;;;5.55;100.00
15670;BME280;18524;45.190;5.732;2024-01-10T14:33:32;99692.19;;;5.63;100.00
15670;BME280;18524;45.190;5.732;2024-01-10T14:38:22;99696.06;;;5.72;100.00
15670;BME280;18524;45.190;5.732;2024-01-10T14:43:13;99694.25;;;5.56;100.00
15670;BME280;18524;45.190;5.732;2024-01-10T14:48:03;99703.72;;;5.57;100.00
15670;BME280;18524;45.190;5.732;2024-01-10T14:52:54;99698.91;;;5.67;100.00
15670;BME280;18524;45.190;5.732;2024-01-10T14:57:44;99703.28;;;5.67;100.00
15670;BME280;18524;45.190;5.732;2024-01-10T15:02:35;99703.03;;;5.71;100.00
15670;BME280;18524;45.190;5.732;2024-01-10T15:07:25;99706.63;;;5.69;100.00
15670;BME280;18524;45.190;5.732;2024-01-10T15:12:17;99699.06;;;5.64;100.00
15670;BME280;18524;45.190;5.732;2024-01-10T15:17:08;99705.44;;;5.58;100.00
15670;BME280;18524;45.190;5.732;2024-01-10T15:21:59;99705.44;;;5.58;100.00
15670;BME280;18524;45.190;5.732;2024-01-10T15:26:49;99698.00;;;5.51;100.00
15670;BME280;18524;45.190;5.732;2024-01-10T15:31:40;99703.19;;;5.51;100.00
15670;BME280;18524;45.190;5.732;2024-01-10T15:36:31;99699.38;;;5.41;100.00
15670;BME280;18524;45.190;5.732;2024-01-10T15:41:21;99699.91;;;5.47;100.00
15670;BME280;18524;45.190;5.732;2024-01-10T15:46:17;99707.03;;;5.44;100.00
15670;BME280;18524;45.190;5.732;2024-01-10T15:51:09;99705.81;;;5.51;100.00
15670;BME280;18524;45.190;5.732;2024-01-10T15:55:59;99700.69;;;5.49;100.00
15670;BME280;18524;45.190;5.732;2024-01-10T16:00:49;99702.53;;;5.47;100.00
15670;BME280;18524;45.190;5.732;2024-01-10T16:05:40;99706.19;;;5.43;100.00
15670;BME280;18524;45.190;5.732;2024-01-10T16:10:30;99701.31;;;5.37;100.00
15670;BME280;18524;45.190;5.732;2024-01-10T16:15:21;99696.50;;;5.29;100.00
15670;BME280;18524;45.190;5.732;2024-01-10T16:20:11;99696.03;;;5.21;100.00
15670;BME280;18524;45.190;5.732;2024-01-10T16:25:02;99698.16;;;5.13;100.00
15670;BME280;18524;45.190;5.732;2024-01-10T16:29:52;99703.28;;;5.15;100.00
15670;BME280;18524;45.190;5.732;2024-01-10T16:34:43;99713.25;;;5.24;100.00
15670;BME280;18524;45.190;5.732;2024-01-10T16:39:33;99696.88;;;5.22;100.00
15670;BME280;18524;45.190;5.732;2024-01-10T16:44:24;99698.56;;;5.23;100.00
15670;BME280;18524;45.190;5.732;2024-01-10T16:49:14;99701.09;;;5.24;100.00
15670;BME280;18524;45.190;5.732;2024-01-10T16:54:05;99697.00;;;5.19;100.00
15670;BME280;18524;45.190;5.732;2024-01-10T16:58:56;99701.38;;;5.18;100.00
15670;BME280;18524;45.190;5.732;2024-01-10T17:03:46;99697.84;;;5.02;100.00
15670;BME280;18524;45.190;5.732;2024-01-10T17:08:37;99706.78;;;4.96;100.00
15670;BME280;18524;45.190;5.732;2024-01-10T17:13:27;99706.88;;;5.12;100.00
15670;BME280;18524;45.190;5.732;2024-01-10T17:18:17;99710.16;;;4.98;100.00
15670;BME280;18524;45.190;5.732;2024-01-10T17:23:08;99710.47;;;4.92;100.00
15670;BME280;18524;45.190;5.732;2024-01-10T17:27:58;99717.34;;;4.93;100.00
15670;BME280;18524;45.190;5.732;2024-01-10T17:32:48;99716.44;;;4.76;100.00
15670;BME280;18524;45.190;5.732;2024-01-10T17:37:39;99726.91;;;4.74;100.00
15670;BME280;18524;45.190;5.732;2024-01-10T17:42:30;99721.16;;;4.67;100.00
15670;BME280;18524;45.190;5.732;2024-01-10T17:47:21;99731.16;;;4.58;100.00
15670;BME280;18524;45.190;5.732;2024-01-10T17:52:12;99736.28;;;4.59;100.00
15670;BME280;18524;45.190;5.732;2024-01-10T17:57:03;99746.72;;;4.77;100.00
15670;BME280;18524;45.190;5.732;2024-01-10T18:01:53;99743.19;;;4.78;100.00
15670;BME280;18524;45.190;5.732;2024-01-10T18:06:44;99744.69;;;4.83;100.00
15670;BME280;18524;45.190;5.732;2024-01-10T18:11:35;99749.09;;;4.81;100.00
15670;BME280;18524;45.190;5.732;2024-01-10T18:16:25;99749.31;;;4.77;100.00
15670;BME280;18524;45.190;5.732;2024-01-10T18:21:17;99755.41;;;4.76;100.00
15670;BME280;18524;45.190;5.732;2024-01-10T18:26:07;99755.56;;;4.72;100.00
15670;BME280;18524;45.190;5.732;2024-01-10T18:30:58;99756.25;;;4.76;100.00
15670;BME280;18524;45.190;5.732;2024-01-10T18:35:48;99755.00;;;4.66;100.00
15670;BME280;18524;45.190;5.732;2024-01-10T18:40:41;99765.75;;;4.58;100.00
15670;BME280;18524;45.190;5.732;2024-01-10T18:45:31;99757.41;;;4.70;100.00
15670;BME280;18524;45.190;5.732;2024-01-10T18:50:21;99756.47;;;4.71;100.00
15670;BME280;18524;45.190;5.732;2024-01-10T18:55:12;99757.19;;;4.75;100.00
15670;BME280;18524;45.190;5.732;2024-01-10T19:00:03;99765.88;;;4.74;100.00
15670;BME280;18524;45.190;5.732;2024-01-10T19:04:54;99763.72;;;4.84;100.00
15670;BME280;18524;45.190;5.732;2024-01-10T19:09:45;99769.25;;;4.76;100.00
15670;BME280;18524;45.190;5.732;2024-01-10T19:14:35;99769.03;;;4.81;100.00
15670;BME280;18524;45.190;5.732;2024-01-10T19:19:25;99767.00;;;4.87;100.00
15670;BME280;18524;45.190;5.732;2024-01-10T19:24:16;99774.13;;;4.84;100.00
15670;BME280;18524;45.190;5.732;2024-01-10T19:29:07;99767.50;;;4.77;100.00
15670;BME280;18524;45.190;5.732;2024-01-10T19:33:58;99767.56;;;4.75;100.00
15670;BME280;18524;45.190;5.732;2024-01-10T19:38:48;99779.16;;;4.68;100.00
15670;BME280;18524;45.190;5.732;2024-01-10T19:43:40;99772.22;;;4.68;100.00
15670;BME280;18524;45.190;5.732;2024-01-10T19:48:31;99766.59;;;4.78;100.00
15670;BME280;18524;45.190;5.732;2024-01-10T19:53:21;99771.69;;;4.79;100.00
15670;BME280;18524;45.190;5.732;2024-01-10T19:58:12;99766.59;;;4.78;100.00
15670;BME280;18524;45.190;5.732;2024-01-10T20:03:03;99771.69;;;4.79;100.00
15670;BME280;18524;45.190;5.732;2024-01-10T20:07:53;99769.09;;;4.79;100.00
15670;BME280;18524;45.190;5.732;2024-01-10T20:12:44;99770.78;;;4.99;100.00
15670;BME280;18524;45.190;5.732;2024-01-10T20:17:34;99776.81;;;4.81;100.00
15670;BME280;18524;45.190;5.732;2024-01-10T20:22:24;99768.91;;;4.84;100.00
15670;BME280;18524;45.190;5.732;2024-01-10T20:27:15;99774.88;;;4.86;100.00
15670;BME280;18524;45.190;5.732;2024-01-10T20:32:06;99783.09;;;4.77;100.00
15670;BME280;18524;45.190;5.732;2024-01-10T20:36:57;99788.22;;;4.78;100.00
15670;BME280;18524;45.190;5.732;2024-01-10T20:41:48;99790.47;;;4.67;100.00
15670;BME280;18524;45.190;5.732;2024-01-10T20:46:38;99793.91;;;4.67;100.00
15670;BME280;18524;45.190;5.732;2024-01-10T20:51:28;99793.28;;;4.62;100.00
15670;BME280;18524;45.190;5.732;2024-01-10T20:56:19;99802.41;;;4.71;100.00
15670;BME280;18524;45.190;5.732;2024-01-10T21:01:10;99796.44;;;4.69;100.00
15670;BME280;18524;45.190;5.732;2024-01-10T21:06:00;99802.63;;;4.66;100.00
15670;BME280;18524;45.190;5.732;2024-01-10T21:10:51;99801.78;;;4.66;100.00
15670;BME280;18524;45.190;5.732;2024-01-10T21:15:41;99805.56;;;4.59;100.00
15670;BME280;18524;45.190;5.732;2024-01-10T21:20:32;99813.06;;;4.65;100.00
15670;BME280;18524;45.190;5.732;2024-01-10T21:25:22;99810.34;;;4.49;100.00
15670;BME280;18524;45.190;5.732;2024-01-10T21:30:13;99808.03;;;4.62;100.00
15670;BME280;18524;45.190;5.732;2024-01-10T21:35:04;99810.59;;;4.43;100.00
15670;BME280;18524;45.190;5.732;2024-01-10T21:39:55;99814.09;;;4.42;100.00
15670;BME280;18524;45.190;5.732;2024-01-10T21:44:45;99806.56;;;4.56;100.00
15670;BME280;18524;45.190;5.732;2024-01-10T21:49:35;99802.47;;;4.51;100.00
15670;BME280;18524;45.190;5.732;2024-01-10T21:54:26;99804.09;;;4.53;100.00
15670;BME280;18524;45.190;5.732;2024-01-10T21:59:16;99803.75;;;4.61;100.00
15670;BME280;18524;45.190;5.732;2024-01-10T22:04:06;99806.69;;;4.53;100.00
15670;BME280;18524;45.190;5.732;2024-01-10T22:08:57;99804.25;;;4.50;100.00
15670;BME280;18524;45.190;5.732;2024-01-10T22:13:48;99798.34;;;4.47;100.00
15670;BME280;18524;45.190;5.732;2024-01-10T22:18:38;99804.09;;;4.53;100.00
15670;BME280;18524;45.190;5.732;2024-01-10T22:23:29;99799.13;;;4.49;100.00
15670;BME280;18524;45.190;5.732;2024-01-10T22:28:19;99795.75;;;4.47;100.00
15670;BME280;18524;45.190;5.732;2024-01-10T22:33:10;99811.63;;;4.39;100.00
15670;BME280;18524;45.190;5.732;2024-01-10T22:38:01;99817.75;;;4.38;100.00
15670;BME280;18524;45.190;5.732;2024-01-10T22:42:52;99812.56;;;4.38;100.00
15670;BME280;18524;45.190;5.732;2024-01-10T22:47:42;99812.69;;;4.35;100.00
15670;BME280;18524;45.190;5.732;2024-01-10T22:52:33;99805.19;;;4.29;100.00
15670;BME280;18524;45.190;5.732;2024-01-10T22:57:23;99791.50;;;4.44;100.00
15670;BME280;18524;45.190;5.732;2024-01-10T23:02:13;99800.69;;;4.32;100.00
15670;BME280;18524;45.190;5.732;2024-01-10T23:07:04;99796.53;;;4.28;100.00
15670;BME280;18524;45.190;5.732;2024-01-10T23:11:54;99793.59;;;4.36;100.00
15670;BME280;18524;45.190;5.732;2024-01-10T23:16:45;99784.84;;;4.38;100.00
15670;BME280;18524;45.190;5.732;2024-01-10T23:21:36;99783.06;;;4.39;100.00
15670;BME280;18524;45.190;5.732;2024-01-10T23:26:27;99785.63;;;4.59;100.00
15670;BME280;18524;45.190;5.732;2024-01-10T23:31:18;99789.94;;;4.40;100.00
15670;BME280;18524;45.190;5.732;2024-01-10T23:36:08;99789.94;;;4.40;100.00
15670;BME280;18524;45.190;5.732;2024-01-10T23:41:01;99783.72;;;4.44;100.00
15670;BME280;18524;45.190;5.732;2024-01-10T23:45:52;99783.00;;;4.40;100.00
15670;BME280;18524;45.190;5.732;2024-01-10T23:50:42;99781.81;;;4.29;100.00
15670;BME280;18524;45.190;5.732;2024-01-10T23:55:33;99775.22;;;4.40;100.00
